createdAt,value
2019-02-09T00:00:01.382Z,100627.16
2019-02-09T00:02:34.712Z,100622.59
2019-02-09T00:05:06.457Z,100625.05
2019-02-09T00:07:38.152Z,100619.07
2019-02-09T00:10:09.969Z,100615.62
2019-02-09T00:12:41.674Z,100604.42
2019-02-09T00:15:13.288Z,100602.97
2019-02-09T00:17:45.001Z,100599.98
2019-02-09T00:20:16.699Z,100596.80
2019-02-09T00:22:48.399Z,100593.05
2019-02-09T00:25:20.071Z,100588.20
2019-02-09T00:27:51.674Z,100585.95
2019-02-09T00:30:23.379Z,100576.64
2019-02-09T00:32:55.056Z,100580.15
2019-02-09T00:35:26.670Z,100570.49
2019-02-09T00:37:58.368Z,100568.15
2019-02-09T00:40:30.051Z,100564.11
2019-02-09T00:43:01.738Z,100568.28
2019-02-09T00:45:33.363Z,100562.17
2019-02-09T00:48:04.984Z,100561.45
2019-02-09T00:50:36.659Z,100553.08
2019-02-09T00:53:08.307Z,100543.70
2019-02-09T00:55:39.958Z,100543.83
2019-02-09T00:58:11.549Z,100536.12
2019-02-09T01:00:43.269Z,100525.09
2019-02-09T01:03:14.915Z,100518.84
2019-02-09T01:05:46.942Z,100513.92
2019-02-09T01:08:18.552Z,100510.47
2019-02-09T01:10:50.257Z,100510.19
2019-02-09T01:13:21.924Z,100501.56
2019-02-09T01:15:53.590Z,100493.91
2019-02-09T01:18:25.185Z,100491.19
2019-02-09T01:20:56.806Z,100484.58
2019-02-09T01:23:28.467Z,100484.52
2019-02-09T01:26:00.054Z,100472.86
2019-02-09T01:28:31.664Z,100467.41
2019-02-09T01:31:03.257Z,100464.60
2019-02-09T01:33:34.934Z,100463.33
2019-02-09T01:36:07.521Z,100458.09
2019-02-09T01:38:39.172Z,100450.92
2019-02-09T01:41:10.784Z,100447.47
2019-02-09T01:43:42.478Z,100438.16
2019-02-09T01:46:14.251Z,100437.77
2019-02-09T01:48:46.081Z,100430.58
2019-02-09T01:51:17.745Z,100422.66
2019-02-09T01:53:49.411Z,100428.08
2019-02-09T01:56:21.074Z,100423.30
2019-02-09T01:58:53.659Z,100412.27
2019-02-09T02:01:25.323Z,100411.81
2019-02-09T02:03:56.929Z,100410.30
2019-02-09T02:06:28.593Z,100411.48
2019-02-09T02:09:00.275Z,100403.26
2019-02-09T02:11:33.494Z,100399.45
2019-02-09T02:14:05.201Z,100393.74
2019-02-09T02:16:36.873Z,100391.28
2019-02-09T02:19:08.578Z,100394.17
2019-02-09T02:21:40.232Z,100389.94
2019-02-09T02:24:11.919Z,100377.98
2019-02-09T02:26:43.515Z,100370.49
2019-02-09T02:29:15.425Z,100367.75
2019-02-09T02:31:47.330Z,100358.92
2019-02-09T02:34:19.207Z,100359.23
2019-02-09T02:36:50.859Z,100346.73
2019-02-09T02:39:22.617Z,100341.86
2019-02-09T02:41:54.299Z,100339.99
2019-02-09T02:44:25.928Z,100332.02
2019-02-09T02:46:57.615Z,100333.34
2019-02-09T02:49:29.238Z,100330.78
2019-02-09T02:52:00.850Z,100347.82
2019-02-09T02:54:32.550Z,100342.69
2019-02-09T02:57:04.147Z,100322.66
2019-02-09T02:59:35.825Z,100316.95
2019-02-09T03:02:07.489Z,100311.64
2019-02-09T03:04:39.202Z,100304.30
2019-02-09T03:07:10.886Z,100309.06
2019-02-09T03:09:42.574Z,100306.17
2019-02-09T03:12:14.294Z,100318.04
2019-02-09T03:14:46.152Z,100317.65
2019-02-09T03:17:17.778Z,100306.08
2019-02-09T03:19:49.467Z,100306.47
2019-02-09T03:22:21.083Z,100299.97
2019-02-09T03:24:52.683Z,100297.26
2019-02-09T03:27:24.420Z,100294.11
2019-02-09T03:29:56.992Z,100290.36
2019-02-09T03:32:28.619Z,100301.63
2019-02-09T03:35:00.357Z,100301.39
2019-02-09T03:37:32.029Z,100304.98
2019-02-09T03:40:03.669Z,100298.04
2019-02-09T03:42:35.274Z,100289.42
2019-02-09T03:45:09.117Z,100287.70
2019-02-09T03:47:40.717Z,100281.21
2019-02-09T03:50:13.275Z,100274.56
2019-02-09T03:52:44.982Z,100271.67
2019-02-09T03:55:16.667Z,100259.80
2019-02-09T03:57:48.289Z,100254.03
2019-02-09T04:00:21.519Z,100247.74
2019-02-09T04:02:53.118Z,100242.38
2019-02-09T04:05:24.750Z,100245.03
2019-02-09T04:07:56.435Z,100244.39
2019-02-09T04:10:28.077Z,100239.17
2019-02-09T04:12:59.674Z,100238.84
2019-02-09T04:15:31.349Z,100239.72
2019-02-09T04:18:03.015Z,100245.03
2019-02-09T04:20:35.115Z,100244.80
2019-02-09T04:23:06.745Z,100255.42
2019-02-09T04:25:38.409Z,100236.52
2019-02-09T04:28:10.074Z,100235.09
2019-02-09T04:30:41.700Z,100225.73
2019-02-09T04:33:13.427Z,100223.53
2019-02-09T04:35:45.170Z,100213.59
2019-02-09T04:38:16.831Z,100203.34
2019-02-09T04:40:48.431Z,100210.00
2019-02-09T04:43:20.118Z,100205.85
2019-02-09T04:45:51.795Z,100201.86
2019-02-09T04:48:23.465Z,100195.59
2019-02-09T04:50:55.165Z,100183.39
2019-02-09T04:53:26.760Z,100176.44
2019-02-09T04:55:58.591Z,100171.53
2019-02-09T04:58:30.259Z,100168.00
2019-02-09T05:01:01.995Z,100162.32
2019-02-09T05:03:37.620Z,100159.02
2019-02-09T05:06:10.935Z,100153.70
2019-02-09T05:08:42.674Z,100153.77
2019-02-09T05:11:14.498Z,100149.23
2019-02-09T05:13:46.268Z,100139.92
2019-02-09T05:16:18.474Z,100131.95
2019-02-09T05:18:50.097Z,100132.05
2019-02-09T05:21:21.765Z,100125.46
2019-02-09T05:23:53.352Z,100118.45
2019-02-09T05:26:24.971Z,100107.83
2019-02-09T05:28:56.569Z,100107.83
2019-02-09T05:31:28.185Z,100096.06
2019-02-09T05:33:59.846Z,100093.50
2019-02-09T05:36:31.785Z,100095.22
2019-02-09T05:39:04.882Z,100084.75
2019-02-09T05:41:37.448Z,100081.60
2019-02-09T05:44:09.099Z,100080.59
2019-02-09T05:46:40.895Z,100084.03
2019-02-09T05:49:12.642Z,100078.78
2019-02-09T05:51:44.326Z,100073.02
2019-02-09T05:54:16.162Z,100074.50
2019-02-09T05:56:47.821Z,100060.92
2019-02-09T05:59:20.497Z,100062.80
2019-02-09T06:01:52.105Z,100063.58
2019-02-09T06:04:23.866Z,100058.72
2019-02-09T06:06:55.978Z,100054.99
2019-02-09T06:09:27.593Z,100059.59
2019-02-09T06:11:59.313Z,100059.66
2019-02-09T06:14:30.931Z,100049.90
2019-02-09T06:17:03.702Z,100048.96
2019-02-09T06:19:35.312Z,100049.90
2019-02-09T06:22:06.914Z,100041.15
2019-02-09T06:24:38.574Z,100047.02
2019-02-09T06:27:10.294Z,100031.52
2019-02-09T06:29:41.986Z,100040.28
2019-02-09T06:32:13.607Z,100039.33
2019-02-09T06:34:45.299Z,100031.91
2019-02-09T06:37:16.928Z,100034.80
2019-02-09T06:39:48.585Z,100034.34
2019-02-09T06:42:20.214Z,100049.90
2019-02-09T06:44:51.868Z,100038.78
2019-02-09T06:47:23.492Z,100044.59
2019-02-09T06:49:55.634Z,100047.80
2019-02-09T06:52:27.286Z,100051.84
2019-02-09T06:54:58.875Z,100047.86
2019-02-09T06:57:30.644Z,100044.75
2019-02-09T07:00:02.257Z,100038.39
2019-02-09T07:02:35.054Z,100030.25
2019-02-09T07:05:07.511Z,100031.31
2019-02-09T07:07:39.297Z,100037.80
2019-02-09T07:10:11.924Z,100027.09
2019-02-09T07:12:43.683Z,100027.09
2019-02-09T07:15:18.069Z,100027.44
2019-02-09T07:17:49.688Z,100027.61
2019-02-09T07:20:21.269Z,100024.95
2019-02-09T07:22:52.962Z,100018.13
2019-02-09T07:25:25.122Z,100025.62
2019-02-09T07:27:56.840Z,100030.55
2019-02-09T07:30:29.005Z,100021.73
2019-02-09T07:33:00.759Z,100024.00
2019-02-09T07:35:32.428Z,100033.70
2019-02-09T07:38:04.105Z,100038.84
2019-02-09T07:40:35.705Z,100035.64
2019-02-09T07:43:08.276Z,100023.78
2019-02-09T07:45:39.946Z,100018.41
2019-02-09T07:48:11.624Z,100017.47
2019-02-09T07:50:43.302Z,100017.96
2019-02-09T07:53:14.915Z,100023.33
2019-02-09T07:55:46.730Z,100018.97
2019-02-09T07:58:18.478Z,100011.85
2019-02-09T08:00:50.083Z,100010.42
2019-02-09T08:03:21.787Z,100005.20
2019-02-09T08:05:53.460Z,100017.47
2019-02-09T08:08:25.101Z,100006.28
2019-02-09T08:10:56.963Z,100000.45
2019-02-09T08:13:28.596Z,100010.27
2019-02-09T08:16:00.223Z,99996.48
2019-02-09T08:18:31.892Z,99994.67
2019-02-09T08:21:03.544Z,99995.50
2019-02-09T08:23:35.240Z,99989.88
2019-02-09T08:26:06.958Z,99996.16
2019-02-09T08:28:39.173Z,100009.04
2019-02-09T08:31:11.774Z,100006.29
2019-02-09T08:33:45.453Z,100016.19
2019-02-09T08:36:17.703Z,100011.91
2019-02-09T08:38:49.523Z,100007.55
2019-02-09T08:41:21.142Z,100004.58
2019-02-09T08:43:53.842Z,100006.58
2019-02-09T08:46:25.619Z,100011.33
2019-02-09T08:48:57.476Z,100006.97
2019-02-09T08:51:30.411Z,100008.19
2019-02-09T08:54:02.193Z,100000.88
2019-02-09T08:56:33.922Z,100009.83
2019-02-09T08:59:05.627Z,100002.69
2019-02-09T09:01:37.429Z,100004.87
2019-02-09T09:04:09.247Z,100015.72
2019-02-09T09:06:41.018Z,100008.67
2019-02-09T09:09:13.496Z,100006.09
2019-02-09T09:11:45.400Z,99999.93
2019-02-09T09:14:17.107Z,99999.33
2019-02-09T09:16:48.916Z,99997.88
2019-02-09T09:19:20.652Z,99998.98
2019-02-09T09:22:29.999Z,99996.78
2019-02-09T09:25:01.655Z,99996.78
2019-02-09T09:27:33.391Z,99999.52
2019-02-09T09:30:07.053Z,100001.71
2019-02-09T09:32:38.749Z,100005.81
2019-02-09T09:35:10.525Z,100008.88
2019-02-09T09:37:42.240Z,100000.59
2019-02-09T09:40:20.078Z,99996.90
2019-02-09T09:42:51.760Z,99993.91
2019-02-09T09:45:25.603Z,99992.46
2019-02-09T09:47:57.290Z,99992.88
2019-02-09T09:50:29.150Z,99992.38
2019-02-09T09:53:00.761Z,100002.11
2019-02-09T09:55:32.483Z,100001.73
2019-02-09T09:58:04.244Z,99992.11
2019-02-09T10:00:36.864Z,99988.16
2019-02-09T10:03:08.544Z,99985.59
2019-02-09T10:05:40.234Z,99979.20
2019-02-09T10:08:11.854Z,99974.60
2019-02-09T10:10:44.028Z,99967.91
2019-02-09T10:13:15.665Z,99986.89
2019-02-09T10:15:47.529Z,99981.23
2019-02-09T10:18:19.487Z,99982.42
2019-02-09T10:20:51.174Z,99983.53
2019-02-09T10:23:22.777Z,99991.44
2019-02-09T10:25:54.461Z,99996.28
2019-02-09T10:28:26.184Z,99994.59
2019-02-09T10:30:57.885Z,99996.02
2019-02-09T10:33:29.608Z,99990.43
2019-02-09T10:36:01.324Z,99998.80
2019-02-09T10:38:32.993Z,99999.94
2019-02-09T10:41:04.711Z,100009.38
2019-02-09T10:43:37.790Z,100008.20
2019-02-09T10:46:09.540Z,100005.70
2019-02-09T10:48:41.242Z,100002.23
2019-02-09T10:51:12.961Z,100004.24
2019-02-09T10:53:44.672Z,100005.02
2019-02-09T10:56:16.661Z,100016.19
2019-02-09T10:58:48.374Z,100001.12
2019-02-09T11:01:21.883Z,99994.85
2019-02-09T11:03:53.565Z,99996.17
2019-02-09T11:06:25.191Z,99996.94
2019-02-09T11:08:56.898Z,100001.38
2019-02-09T11:11:28.608Z,100008.48
2019-02-09T11:14:00.328Z,100008.29
2019-02-09T11:16:32.028Z,99994.83
2019-02-09T11:19:03.729Z,100009.70
2019-02-09T11:21:35.477Z,100002.58
2019-02-09T11:24:07.213Z,100004.98
2019-02-09T11:26:39.837Z,100002.18
2019-02-09T11:29:11.887Z,100008.08
2019-02-09T11:31:47.614Z,100011.03
2019-02-09T11:34:19.685Z,100013.58
2019-02-09T11:36:51.307Z,100010.35
2019-02-09T11:39:23.006Z,100005.16
2019-02-09T11:41:54.667Z,100006.48
2019-02-09T11:44:26.378Z,100001.39
2019-02-09T11:46:58.055Z,100013.73
2019-02-09T11:49:29.762Z,100017.06
2019-02-09T11:52:01.481Z,100010.25
2019-02-09T11:54:33.167Z,100015.45
2019-02-09T11:57:04.888Z,100017.23
2019-02-09T11:59:36.590Z,100018.30
2019-02-09T12:02:09.632Z,100021.08
2019-02-09T12:04:41.383Z,100024.46
2019-02-09T12:07:13.106Z,100016.06
2019-02-09T12:09:44.746Z,100021.08
2019-02-09T12:12:16.705Z,100010.37
2019-02-09T12:14:48.339Z,100007.13
2019-02-09T12:17:19.989Z,99993.83
2019-02-09T12:19:51.700Z,100008.20
2019-02-09T12:22:23.396Z,99988.19
2019-02-09T12:24:55.067Z,99988.02
2019-02-09T12:27:26.773Z,99998.09
2019-02-09T12:29:59.098Z,99997.37
2019-02-09T12:32:32.811Z,100003.11
2019-02-09T12:35:05.029Z,99997.23
2019-02-09T12:37:36.811Z,100006.06
2019-02-09T12:40:10.643Z,100012.39
2019-02-09T12:42:42.351Z,100010.47
2019-02-09T12:45:15.044Z,100014.38
2019-02-09T12:47:46.816Z,100014.34
2019-02-09T12:50:19.066Z,100009.52
2019-02-09T12:52:50.764Z,100010.49
2019-02-09T12:55:22.544Z,100008.42
2019-02-09T12:57:54.226Z,100017.06
2019-02-09T13:00:56.370Z,100022.08
2019-02-09T13:03:31.372Z,100020.00
2019-02-09T13:06:01.617Z,100024.37
2019-02-09T13:08:37.477Z,100030.86
2019-02-09T13:11:17.947Z,100028.57
2019-02-09T13:13:53.351Z,100026.75
2019-02-09T13:16:25.767Z,100034.09
2019-02-09T13:18:57.536Z,100037.86
2019-02-09T13:21:33.607Z,100030.53
2019-02-09T13:24:05.570Z,100036.39
2019-02-09T13:26:39.424Z,100046.65
2019-02-09T13:33:38.848Z,100041.89
2019-02-09T13:36:11.857Z,100042.62
2019-02-09T13:39:17.129Z,100041.41
2019-02-09T13:42:23.549Z,100031.98
2019-02-09T13:45:25.604Z,100034.17
2019-02-09T13:48:10.928Z,100030.16
2019-02-09T13:50:51.116Z,100035.86
2019-02-09T13:53:51.670Z,100040.25
2019-02-09T13:59:55.485Z,100048.38
2019-02-09T14:02:36.973Z,100056.42
2019-02-09T14:06:12.258Z,100051.37
2019-02-09T14:09:25.848Z,100059.70
2019-02-09T14:12:11.142Z,100048.34
2019-02-09T14:14:52.336Z,100049.67
2019-02-09T14:17:59.212Z,100057.84
2019-02-09T14:20:39.242Z,100055.41
2019-02-09T14:24:01.982Z,100052.88
2019-02-09T14:27:17.496Z,100049.69
2019-02-09T14:31:00.616Z,100056.28
2019-02-09T14:33:44.172Z,100047.63
2019-02-09T14:36:23.252Z,100054.81
2019-02-09T14:39:05.063Z,100058.02
2019-02-09T14:42:28.880Z,100056.52
2019-02-09T14:45:07.106Z,100055.66
2019-02-09T14:47:57.542Z,100056.88
2019-02-09T14:50:32.579Z,100060.80
2019-02-09T14:53:09.956Z,100063.96
2019-02-09T14:55:47.883Z,100064.09
2019-02-09T14:58:26.448Z,100067.98
2019-02-09T15:01:04.351Z,100073.09
2019-02-09T15:03:47.453Z,100069.16
2019-02-09T15:06:37.208Z,100071.84
2019-02-09T15:09:17.583Z,100068.39
2019-02-09T15:12:11.802Z,100064.37
2019-02-09T15:15:24.171Z,100066.88
2019-02-09T15:21:20.820Z,100053.84
2019-02-09T15:23:54.916Z,100059.88
2019-02-09T15:26:31.019Z,100061.86
2019-02-09T15:29:08.046Z,100073.73
2019-02-09T15:31:41.788Z,100069.78
2019-02-09T15:34:20.516Z,100073.64
2019-02-09T15:36:55.156Z,100074.09
2019-02-09T15:39:32.444Z,100080.11
2019-02-09T15:42:09.651Z,100097.49
2019-02-09T15:44:46.335Z,100095.85
2019-02-09T15:47:20.421Z,100092.92
2019-02-09T15:49:57.194Z,100096.07
2019-02-09T15:52:33.626Z,100092.25
2019-02-09T15:55:12.871Z,100100.09
2019-02-09T15:57:50.088Z,100098.44
2019-02-09T16:00:28.259Z,100102.80
2019-02-09T16:03:02.291Z,100107.45
2019-02-09T16:05:37.540Z,100111.67
2019-02-09T16:08:14.385Z,100110.58
2019-02-09T16:10:49.431Z,100112.97
2019-02-09T16:13:27.381Z,100112.59
2019-02-09T16:16:05.503Z,100111.47
2019-02-09T16:18:43.477Z,100121.54
2019-02-09T16:21:22.968Z,100122.63
2019-02-09T16:24:00.422Z,100126.47
2019-02-09T16:26:40.931Z,100128.56
2019-02-09T16:29:28.711Z,100129.73
2019-02-09T16:32:07.485Z,100132.33
2019-02-09T16:34:43.913Z,100136.47
2019-02-09T16:37:28.183Z,100145.08
2019-02-09T16:40:06.187Z,100140.52
2019-02-09T16:42:41.076Z,100141.02
2019-02-09T16:45:26.873Z,100145.70
2019-02-09T16:48:10.366Z,100150.80
2019-02-09T16:50:50.578Z,100161.11
2019-02-09T16:53:27.248Z,100165.59
2019-02-09T16:56:08.402Z,100162.19
2019-02-09T16:59:44.393Z,100164.48
2019-02-09T17:03:30.859Z,100174.89
2019-02-09T17:06:18.156Z,100181.23
2019-02-09T17:08:53.484Z,100187.28
2019-02-09T17:11:29.510Z,100180.22
2019-02-09T17:14:03.478Z,100189.89
2019-02-09T17:16:38.775Z,100185.51
2019-02-09T17:19:17.413Z,100185.41
2019-02-09T17:21:51.709Z,100186.95
2019-02-09T17:24:26.915Z,100190.06
2019-02-09T17:27:15.864Z,100202.17
2019-02-09T17:29:50.133Z,100194.78
2019-02-09T17:32:27.117Z,100201.16
2019-02-09T17:35:04.864Z,100197.93
2019-02-09T17:50:08.536Z,100218.12
2019-02-09T17:52:44.663Z,100210.80
2019-02-09T17:55:24.359Z,100212.02
2019-02-09T17:58:09.878Z,100198.09
2019-02-09T18:00:44.740Z,100198.32
2019-02-09T18:03:25.931Z,100199.66
2019-02-09T18:06:00.933Z,100195.73
2019-02-09T18:08:35.807Z,100199.66
2019-02-09T18:11:13.616Z,100205.38
2019-02-09T18:14:27.790Z,100212.50
2019-02-09T18:17:06.376Z,100210.79
2019-02-09T18:19:48.038Z,100209.84
2019-02-09T18:22:26.669Z,100215.55
2019-02-09T18:25:05.701Z,100211.17
2019-02-09T18:27:43.807Z,100214.60
2019-02-09T18:30:25.300Z,100212.81
2019-02-09T18:33:14.676Z,100219.45
2019-02-09T18:39:09.308Z,100204.96
2019-02-09T18:41:55.643Z,100191.34
2019-02-09T18:44:38.055Z,100191.61
2019-02-09T18:47:13.896Z,100187.80
2019-02-09T18:49:52.798Z,100185.63
2019-02-09T18:52:28.175Z,100183.91
2019-02-09T18:55:07.896Z,100196.11
2019-02-09T18:57:41.826Z,100190.39
2019-02-09T19:00:18.544Z,100218.61
2019-02-09T19:02:55.636Z,100202.86
2019-02-09T19:05:29.439Z,100191.15
2019-02-09T19:08:06.452Z,100208.47
2019-02-09T19:11:05.727Z,100204.66
2019-02-09T19:13:49.875Z,100206.41
2019-02-09T19:16:27.899Z,100210.80
2019-02-09T19:19:03.238Z,100211.94
2019-02-09T19:21:49.450Z,100210.98
2019-02-09T19:24:25.716Z,100207.44
2019-02-09T19:27:03.545Z,100201.83
2019-02-09T19:29:42.923Z,100199.43
2019-02-09T19:32:22.239Z,100209.00
2019-02-09T19:34:59.455Z,100220.13
2019-02-09T19:37:37.277Z,100209.19
2019-02-09T19:40:13.652Z,100213.38
2019-02-09T19:42:51.282Z,100220.70
2019-02-09T19:45:29.641Z,100227.19
2019-02-09T19:48:04.153Z,100223.19
2019-02-09T19:50:42.984Z,100229.20
2019-02-09T19:53:19.283Z,100213.66
2019-02-09T19:55:59.901Z,100233.40
2019-02-09T19:58:35.226Z,100235.77
2019-02-09T20:01:11.333Z,100233.28
2019-02-09T20:03:50.078Z,100223.86
2019-02-09T20:06:26.326Z,100237.20
2019-02-09T20:09:04.795Z,100237.41
2019-02-09T20:11:39.815Z,100239.30
2019-02-09T20:14:23.786Z,100234.42
2019-02-09T20:16:57.634Z,100243.87
2019-02-09T20:19:40.379Z,100239.68
2019-02-09T20:22:19.534Z,100239.28
2019-02-09T20:24:53.185Z,100240.34
2019-02-09T20:27:24.912Z,100239.47
2019-02-09T20:29:57.644Z,100244.15
2019-02-09T20:32:29.716Z,100243.56
2019-02-09T20:35:01.498Z,100249.28
2019-02-09T20:37:33.212Z,100254.93
2019-02-09T20:40:05.506Z,100245.59
2019-02-09T20:42:37.234Z,100257.86
2019-02-09T20:45:10.683Z,100246.73
2019-02-09T20:47:47.944Z,100255.57
2019-02-09T20:50:15.934Z,100259.58
2019-02-09T20:52:47.633Z,100258.72
2019-02-09T20:55:19.390Z,100275.42
2019-02-09T20:57:51.309Z,100264.74
2019-02-09T21:00:24.187Z,100270.28
2019-02-09T21:02:57.987Z,100268.66
2019-02-09T21:05:35.970Z,100275.73
2019-02-09T21:08:03.437Z,100276.50
2019-02-09T21:10:35.350Z,100275.91
2019-02-09T21:13:07.351Z,100275.26
2019-02-09T21:15:39.062Z,100275.91
2019-02-09T21:18:10.751Z,100273.70
2019-02-09T21:20:42.473Z,100271.91
2019-02-09T21:23:14.187Z,100272.56
2019-02-09T21:25:46.100Z,100286.11
2019-02-09T21:28:17.795Z,100274.69
2019-02-09T21:30:49.489Z,100294.62
2019-02-09T21:33:21.414Z,100289.66
2019-02-09T21:35:53.339Z,100292.21
2019-02-09T21:38:25.029Z,100287.83
2019-02-09T21:40:56.925Z,100293.77
2019-02-09T21:43:30.390Z,100293.84
2019-02-09T21:46:02.188Z,100298.55
2019-02-09T21:48:33.910Z,100298.78
2019-02-09T21:51:05.993Z,100299.66
2019-02-09T21:53:37.827Z,100294.92
2019-02-09T21:56:09.841Z,100293.84
2019-02-09T21:58:41.919Z,100294.34
2019-02-09T22:01:13.717Z,100287.83
2019-02-09T22:03:47.133Z,100283.63
2019-02-09T22:06:18.849Z,100283.92
2019-02-09T22:08:50.566Z,100285.14
2019-02-09T22:11:22.373Z,100289.54
2019-02-09T22:13:55.110Z,100290.03
2019-02-09T22:16:26.864Z,100289.35
2019-02-09T22:18:59.249Z,100290.23
2019-02-09T22:21:31.213Z,100297.17
2019-02-09T22:24:03.001Z,100292.59
2019-02-09T22:26:34.763Z,100291.06
2019-02-09T22:29:06.462Z,100290.41
2019-02-09T22:31:38.486Z,100292.98
2019-02-09T22:34:10.314Z,100292.03
2019-02-09T22:36:42.092Z,100295.27
2019-02-09T22:39:13.771Z,100296.42
2019-02-09T22:41:49.182Z,100300.12
2019-02-09T22:44:19.419Z,100297.19
2019-02-09T22:46:51.954Z,100300.05
2019-02-09T22:49:23.630Z,100306.03
2019-02-09T22:51:55.233Z,100298.52
2019-02-09T22:54:26.840Z,100306.33
2019-02-09T22:56:58.498Z,100305.28
2019-02-09T22:59:30.103Z,100295.44
2019-02-09T23:02:01.810Z,100307.45
2019-02-09T23:05:10.805Z,100308.61
2019-02-09T23:07:42.861Z,100305.56
2019-02-09T23:10:15.304Z,100319.09
2019-02-09T23:12:48.715Z,100319.83
2019-02-09T23:15:20.312Z,100318.11
2019-02-09T23:17:51.983Z,100323.52
2019-02-09T23:20:23.577Z,100324.09
2019-02-09T23:22:55.264Z,100324.20
2019-02-09T23:25:26.941Z,100323.81
2019-02-09T23:27:59.636Z,100323.72
2019-02-09T23:30:31.757Z,100324.84
2019-02-09T23:33:03.440Z,100326.08
2019-02-09T23:35:35.108Z,100325.20
2019-02-09T23:38:06.722Z,100323.77
2019-02-09T23:40:38.384Z,100326.99
2019-02-09T23:43:10.054Z,100327.06
2019-02-09T23:45:41.733Z,100329.17
2019-02-09T23:48:13.418Z,100340.01
2019-02-09T23:50:45.208Z,100335.48
2019-02-09T23:53:16.905Z,100335.77
2019-02-09T23:55:48.499Z,100338.25
2019-02-09T23:58:20.308Z,100333.58
